Terminal Aerodrome Forecast
Issued by NWS

Home | Current Version | Previous Version | Text Only | Print | Product List | Glossary On
Versions: 1 2 3 4 5 6 7 8 9 10 11 12 13 14 15 16 17 18 19
000
FTUS45 KVEF 282326
TAFVGT
TAF
KVGT 282326Z 2900/2924 VRB06KT P6SM VCSH SCT050 BKN070
      TEMPO 2900/2902 36015G25KT -TSRA BKN050CB
     FM290400 33008KT P6SM FEW060 BKN100
     FM291500 35010KT P6SM FEW070 SCT110
     FM292100 24008KT P6SM FEW070 SCT110=

USA.gov is the U.S. government's official web portal to all federal, state and local government web resources and services.